Time;durP1;ratioP1;P1;durP2;ratioP2;P2;SDS_P1;SDS_P2;PMS_P1;PMS_P2;Temp;Humidity;BMP_temperature;BMP_pressure;BME280_temperature;BME280_humidity;BME280_pressure;Samples;Min_cycle;Max_cycle;Signal;HPM_P1;HPM_P2
2021/11/10 00:02:34;;;;;;;5.99;3.26;;;;;;;-0.17;89.65;100207.53;2320359;67;22176;-76
2021/11/10 00:05:38;;;;;;;6.14;3.51;;;;;;;-0.15;89.80;100208.47;2319420;68;20402;-76
2021/11/10 00:08:40;;;;;;;4.52;3.42;;;;;;;-0.17;89.77;100194.75;2320196;69;20304;-76
2021/11/10 00:11:43;;;;;;;5.00;3.21;;;;;;;-0.20;89.78;100192.91;2320699;69;20183;-76
2021/11/10 00:14:46;;;;;;;5.18;3.12;;;;;;;-0.21;89.79;100198.81;2320076;68;20311;-76
2021/11/10 00:17:49;;;;;;;6.41;3.63;;;;;;;-0.23;89.78;100192.75;2318460;66;21252;-76
2021/11/10 00:20:52;;;;;;;5.93;3.37;;;;;;;-0.26;89.71;100195.16;2320743;69;20140;-76
2021/11/10 00:23:55;;;;;;;4.37;3.29;;;;;;;-0.28;89.84;100189.09;2320616;68;20190;-76
2021/11/10 00:26:59;;;;;;;3.22;2.62;;;;;;;-0.26;89.90;100191.72;2319781;69;20140;-76
2021/11/10 00:30:02;;;;;;;4.68;3.00;;;;;;;-0.27;89.61;100174.66;2320379;69;20147;-76
2021/11/10 00:33:05;;;;;;;6.21;3.32;;;;;;;-0.33;89.14;100178.66;2317679;66;23876;-76
2021/11/10 00:36:09;;;;;;;8.56;3.19;;;;;;;-0.35;89.05;100179.38;2326861;68;20143;-75
2021/11/10 00:39:12;;;;;;;4.40;3.14;;;;;;;-0.37;89.17;100178.41;2332221;68;21155;-76
2021/11/10 00:42:14;;;;;;;6.16;2.83;;;;;;;-0.35;89.28;100171.72;2326422;68;20720;-76
2021/11/10 00:45:17;;;;;;;3.69;2.96;;;;;;;-0.40;89.22;100173.16;2324981;68;20163;-75
2021/11/10 00:48:19;;;;;;;7.21;3.31;;;;;;;-0.47;89.08;100173.63;2327387;68;20163;-75
2021/11/10 00:51:23;;;;;;;6.79;3.64;;;;;;;-0.53;89.30;100174.22;2327593;68;20152;-75
2021/11/10 00:54:26;;;;;;;3.82;2.93;;;;;;;-0.50;89.58;100191.34;2326930;68;20164;-75
2021/11/10 00:57:28;;;;;;;4.52;2.86;;;;;;;-0.49;89.61;100185.44;2326987;68;20151;-75
2021/11/10 01:00:31;;;;;;;5.39;2.72;;;;;;;-0.56;89.16;100191.00;2326631;66;21844;-76
2021/11/10 01:03:34;;;;;;;5.36;3.11;;;;;;;-0.58;89.53;100190.91;2326707;68;20151;-76
2021/11/10 01:06:37;;;;;;;6.21;3.06;;;;;;;-0.55;89.69;100188.53;2328299;68;20615;-76
2021/11/10 01:09:41;;;;;;;4.60;2.98;;;;;;;-0.55;89.84;100193.63;2328300;68;20247;-75
2021/11/10 01:12:44;;;;;;;4.43;2.64;;;;;;;-0.55;89.82;100196.19;2325853;68;20270;-75
2021/11/10 01:15:47;;;;;;;4.44;3.21;;;;;;;-0.55;89.73;100198.72;2324422;66;21744;-75
2021/11/10 01:18:50;;;;;;;5.17;2.86;;;;;;;-0.59;89.75;100194.28;2328459;68;20155;-75
2021/11/10 01:21:52;;;;;;;4.64;2.81;;;;;;;-0.57;89.84;100194.34;2328223;68;20235;-75
2021/11/10 01:24:55;;;;;;;4.03;2.99;;;;;;;-0.59;89.65;100194.28;2327997;68;20538;-75
2021/11/10 01:27:59;;;;;;;5.14;3.22;;;;;;;-0.62;89.13;100189.00;2326963;68;20218;-75
2021/11/10 01:31:02;;;;;;;4.56;3.00;;;;;;;-0.64;88.83;100196.59;2324198;66;21513;-76
2021/11/10 01:34:08;;;;;;;5.02;3.17;;;;;;;-0.65;88.79;100202.50;2327736;68;20751;-75
2021/11/10 01:37:10;;;;;;;6.43;3.24;;;;;;;-0.69;88.54;100187.81;2326545;68;20462;-76
2021/11/10 01:40:15;;;;;;;3.46;2.42;;;;;;;-0.71;88.50;100188.53;2326597;68;20312;-75
2021/11/10 01:43:17;;;;;;;5.14;2.82;;;;;;;-0.72;88.69;100202.06;2325211;68;20210;-75
2021/11/10 01:46:20;;;;;;;4.13;2.82;;;;;;;-0.76;88.96;100201.03;2324582;66;20805;-75
2021/11/10 01:49:23;;;;;;;4.41;2.80;;;;;;;-0.76;89.17;100201.03;2326884;68;20142;-75
2021/11/10 01:52:25;;;;;;;3.66;2.64;;;;;;;-0.79;88.96;100200.88;2326440;68;20219;-76
2021/11/10 01:55:28;;;;;;;5.00;2.88;;;;;;;-0.79;88.80;100203.41;2325641;68;20151;-75
2021/11/10 01:58:31;;;;;;;4.06;2.94;;;;;;;-0.77;89.05;100193.31;2326807;68;20682;-75
2021/11/10 02:01:46;;;;;;;4.59;3.09;;;;;;;-0.79;89.24;100182.16;2324105;66;24073;-75
2021/11/10 02:04:49;;;;;;;5.00;2.43;;;;;;;-0.81;89.36;100183.75;2325922;68;20142;-75
2021/11/10 02:07:52;;;;;;;3.21;2.40;;;;;;;-0.82;89.19;100189.63;2327249;68;20175;-76
2021/11/10 02:10:56;;;;;;;4.59;2.87;;;;;;;-0.84;89.08;100204.84;2325611;68;20447;-76
2021/11/10 02:14:01;;;;;;;5.42;2.81;;;;;;;-0.85;89.21;100202.22;2327447;68;20189;-75
2021/11/10 02:17:05;;;;;;;3.22;2.90;;;;;;;-0.85;89.29;100218.41;2323822;66;20931;-75
2021/11/10 02:20:10;;;;;;;5.00;3.08;;;;;;;-0.86;89.46;100209.00;2326573;68;21373;-75
2021/11/10 02:23:13;;;;;;;4.63;3.22;;;;;;;-0.81;89.44;100201.59;2327763;68;20187;-75
2021/11/10 02:26:22;;;;;;;3.61;2.61;;;;;;;-0.80;89.23;100200.78;2326779;68;20183;-75
2021/11/10 02:29:28;;;;;;;4.69;3.11;;;;;;;-0.82;89.29;100176.88;2326252;68;20147;-75
2021/11/10 02:32:30;;;;;;;5.09;2.93;;;;;;;-0.82;89.11;100153.94;2324325;67;21091;-75
2021/11/10 02:35:33;;;;;;;5.72;3.10;;;;;;;-0.83;88.95;100164.94;2326220;68;20613;-75
2021/11/10 02:38:37;;;;;;;6.45;3.25;;;;;;;-0.86;88.69;100160.56;2327438;68;20162;-75
2021/11/10 02:41:41;;;;;;;5.08;2.54;;;;;;;-0.86;88.48;100141.84;2325532;68;20312;-76
2021/11/10 02:44:47;;;;;;;5.08;3.02;;;;;;;-0.87;88.39;100163.91;2326908;68;20277;-75
2021/11/10 02:47:51;;;;;;;4.63;2.76;;;;;;;-0.88;88.52;100159.59;2324686;66;21338;-75
2021/11/10 02:50:53;;;;;;;3.42;3.06;;;;;;;-0.91;88.42;100151.78;2325864;68;20174;-75
2021/11/10 02:53:56;;;;;;;5.80;3.20;;;;;;;-0.94;88.25;100139.75;2327058;68;20163;-76
2021/11/10 02:57:01;;;;;;;2.77;2.41;;;;;;;-0.97;88.11;100134.50;2325202;68;20231;-75
2021/11/10 03:00:06;;;;;;;5.61;3.23;;;;;;;-0.98;88.49;100152.25;2324308;68;20502;-75
2021/11/10 03:03:09;;;;;;;3.98;2.57;;;;;;;-1.00;88.46;100144.53;2328047;66;22757;-75
2021/11/10 03:06:12;;;;;;;5.26;2.76;;;;;;;-1.02;88.28;100123.19;2328881;68;20163;-75
2021/11/10 03:09:17;;;;;;;5.33;2.81;;;;;;;-1.03;88.30;100126.53;2327878;68;20147;-75
2021/11/10 03:12:20;;;;;;;2.89;2.33;;;;;;;-1.04;88.60;100104.38;2327519;68;20181;-75
2021/11/10 03:15:23;;;;;;;4.61;2.50;;;;;;;-1.06;88.75;100103.44;2327463;67;21237;-75
2021/11/10 03:18:26;;;;;;;4.59;2.79;;;;;;;-1.08;89.03;100112.66;2328265;68;20675;-75
2021/11/10 03:21:29;;;;;;;3.71;3.07;;;;;;;-1.07;89.22;100116.97;2327702;68;20797;-75
2021/11/10 03:24:33;;;;;;;4.74;3.23;;;;;;;-1.06;89.03;100097.47;2329141;68;20211;-75
2021/11/10 03:27:35;;;;;;;5.20;3.76;;;;;;;-1.08;88.87;100093.94;2327261;68;20139;-75
2021/11/10 03:30:38;;;;;;;4.68;3.53;;;;;;;-1.05;88.85;100107.75;2327317;67;20179;-75
2021/11/10 03:33:41;;;;;;;6.91;3.90;;;;;;;-1.07;89.04;100096.59;2328827;68;20180;-75
2021/11/10 03:36:44;;;;;;;5.79;4.14;;;;;;;-1.06;89.26;100085.59;2327568;68;20235;-75
2021/11/10 03:39:47;;;;;;;5.71;3.36;;;;;;;-1.04;89.34;100095.88;2328848;68;20147;-74
2021/11/10 03:42:49;;;;;;;5.79;3.36;;;;;;;-1.05;89.33;100089.91;2327018;68;20151;-74
2021/11/10 03:45:52;;;;;;;7.37;3.63;;;;;;;-1.07;89.14;100080.44;2326460;67;24687;-75
2021/11/10 03:48:55;;;;;;;6.00;3.61;;;;;;;-1.09;88.79;100084.53;2327284;68;20469;-75
2021/11/10 03:52:01;;;;;;;4.60;3.06;;;;;;;-1.11;88.74;100076.81;2326995;68;20172;-74
2021/11/10 03:55:04;;;;;;;6.19;3.16;;;;;;;-1.13;88.56;100077.53;2333600;68;20195;-75
2021/11/10 03:58:09;;;;;;;9.97;3.41;;;;;;;-1.14;88.63;100078.34;2327902;68;20151;-75
2021/11/10 04:01:13;;;;;;;6.07;3.32;;;;;;;-1.16;88.98;100085.03;2325490;67;24252;-75
2021/11/10 04:04:16;;;;;;;6.28;4.13;;;;;;;-1.16;89.27;100093.53;2327000;68;20803;-74
2021/11/10 04:07:19;;;;;;;5.44;3.76;;;;;;;-1.15;89.26;100094.41;2327971;68;20454;-75
2021/11/10 04:10:23;;;;;;;5.41;3.81;;;;;;;-1.15;89.21;100089.31;2325766;68;20167;-74
2021/11/10 04:13:28;;;;;;;5.88;3.79;;;;;;;-1.14;89.27;100089.41;2320423;68;20151;-75
2021/11/10 04:16:31;;;;;;;5.96;3.59;;;;;;;-1.10;89.47;100109.13;2324143;68;20773;-75
2021/11/10 04:19:34;;;;;;;7.11;4.51;;;;;;;-1.08;89.53;100096.47;2325804;68;20198;-75
2021/11/10 04:22:37;;;;;;;7.11;3.78;;;;;;;-1.04;89.53;100088.22;2310112;68;20180;-74
2021/11/10 04:25:40;;;;;;;6.66;3.74;;;;;;;-1.00;89.67;100103.75;2320425;68;20286;-75
2021/11/10 04:28:43;;;;;;;7.43;4.02;;;;;;;-0.95;89.68;100101.44;2323921;68;20161;-75
2021/11/10 04:31:45;;;;;;;7.61;3.71;;;;;;;-0.92;89.62;100096.50;2319307;66;20364;-75
2021/11/10 04:34:48;;;;;;;6.78;3.79;;;;;;;-0.87;89.63;100096.75;2315098;68;20560;-74
2021/11/10 04:37:51;;;;;;;8.58;4.29;;;;;;;-0.88;89.55;100088.25;2325912;68;20852;-75
2021/11/10 04:40:54;;;;;;;5.19;3.67;;;;;;;-0.87;89.57;100079.78;2325553;68;20656;-75
2021/11/10 04:43:57;;;;;;;5.11;3.68;;;;;;;-0.84;89.61;100097.78;2324290;68;20155;-75
2021/11/10 04:46:59;;;;;;;5.50;3.74;;;;;;;-0.83;89.61;100101.22;2312646;68;994323;-74
2021/11/10 04:50:04;;;;;;;6.68;4.13;;;;;;;-0.83;89.66;100097.00;2324933;68;20236;-75
2021/11/10 04:53:08;;;;;;;12.02;4.64;;;;;;;-0.80;89.76;100093.72;2325694;68;20167;-75
2021/11/10 04:56:11;;;;;;;9.41;4.86;;;;;;;-0.80;89.79;100092.03;2324827;68;20139;-75
2021/11/10 04:59:14;;;;;;;9.94;4.19;;;;;;;-0.82;89.89;100092.75;2324682;68;20172;-75
2021/11/10 05:05:20;;;;;;;8.41;4.13;;;;;;;-0.81;90.06;100105.59;2325821;68;20307;-75
2021/11/10 05:08:23;;;;;;;7.97;3.99;;;;;;;-0.80;89.95;100101.38;2325281;68;20135;-74
2021/11/10 05:11:26;;;;;;;6.58;3.81;;;;;;;-0.82;89.85;100113.16;2324618;68;20167;-74
2021/11/10 05:14:28;;;;;;;7.20;3.76;;;;;;;-0.85;89.88;100108.78;2325970;68;20163;-75
2021/11/10 05:17:31;;;;;;;9.46;4.33;;;;;;;-0.84;89.92;100099.47;2321446;68;20921;-75
2021/11/10 05:20:34;;;;;;;9.27;4.26;;;;;;;-0.83;89.94;100098.66;2319689;68;21080;-75
2021/11/10 05:23:36;;;;;;;7.64;4.02;;;;;;;-0.83;89.90;100102.09;2330317;68;20283;-74
2021/11/10 05:26:40;;;;;;;7.80;4.33;;;;;;;-0.82;89.82;100100.41;2323714;68;20151;-75
2021/11/10 05:29:42;;;;;;;8.60;4.36;;;;;;;-0.85;89.46;100097.72;2311700;68;20151;-74
2021/11/10 05:32:45;;;;;;;8.06;4.29;;;;;;;-0.86;89.17;100121.44;2318954;66;23606;-75
2021/11/10 05:35:47;;;;;;;9.58;4.51;;;;;;;-0.85;89.23;100115.56;2324473;68;20287;-75
2021/11/10 05:38:50;;;;;;;10.46;5.69;;;;;;;-0.91;89.27;100114.41;2324081;68;20176;-75
2021/11/10 05:41:53;;;;;;;10.34;4.76;;;;;;;-0.89;89.36;100106.88;2323657;68;20159;-75
2021/11/10 05:44:55;;;;;;;11.31;4.39;;;;;;;-0.96;89.40;100100.56;2325591;68;20194;-75
2021/11/10 05:47:58;;;;;;;12.87;5.30;;;;;;;-0.95;89.67;100101.44;2321611;68;20227;-75
2021/11/10 05:51:02;;;;;;;10.78;4.98;;;;;;;-0.92;89.83;100105.00;2309766;68;20172;-74
2021/11/10 05:54:04;;;;;;;9.93;4.79;;;;;;;-0.89;89.81;100099.22;2311210;68;20165;-75
2021/11/10 05:57:11;;;;;;;8.46;4.92;;;;;;;-0.87;89.66;100106.94;2325321;68;20167;-75
2021/11/10 06:00:15;;;;;;;7.39;4.80;;;;;;;-0.89;89.52;100106.00;2325139;68;20139;-74
2021/11/10 06:03:19;;;;;;;9.12;4.81;;;;;;;-0.95;89.21;100096.34;2324958;68;20668;-75
2021/11/10 06:06:27;;;;;;;10.04;5.11;;;;;;;-0.97;89.15;100093.72;2324111;68;20227;-74
2021/11/10 06:09:32;;;;;;;10.41;4.63;;;;;;;-1.01;89.31;100094.34;2313921;68;20147;-75
2021/11/10 06:12:47;;;;;;;11.30;5.17;;;;;;;-1.04;89.59;100100.97;2320445;68;20171;-75
2021/11/10 06:15:52;;;;;;;11.86;5.46;;;;;;;-1.07;89.71;100104.22;2312659;66;33474;-75
2021/11/10 06:18:56;;;;;;;10.90;5.31;;;;;;;-1.09;89.81;100102.38;2310892;68;20581;-74
2021/11/10 06:22:01;;;;;;;10.14;4.78;;;;;;;-1.07;89.94;100113.56;2325117;68;20163;-75
2021/11/10 06:25:05;;;;;;;9.82;4.84;;;;;;;-1.06;89.78;100112.75;2325263;68;20637;-75
2021/11/10 06:28:08;;;;;;;11.87;5.09;;;;;;;-1.08;89.77;100099.03;2325115;68;20247;-75
2021/11/10 06:31:13;;;;;;;9.22;4.98;;;;;;;-1.06;89.74;100106.00;2322551;68;20231;-75
2021/11/10 06:34:16;;;;;;;8.41;5.00;;;;;;;-1.04;89.60;100111.16;2315407;68;20264;-75
2021/11/10 06:37:20;;;;;;;8.50;5.19;;;;;;;-1.05;89.63;100112.84;2311122;68;20150;-75
2021/11/10 06:43:35;;;;;;;9.82;4.77;;;;;;;-1.04;89.40;100116.25;2322442;68;20260;-74
2021/11/10 06:46:38;;;;;;;8.62;5.04;;;;;;;-1.09;89.00;100103.25;2321897;66;197648;-74
2021/11/10 06:49:41;;;;;;;10.63;4.74;;;;;;;-1.11;88.75;100081.03;2328537;68;20174;-75
2021/11/10 06:52:47;;;;;;;10.87;5.12;;;;;;;-1.11;88.77;100102.28;2319167;68;20278;-74
2021/11/10 06:55:50;;;;;;;9.26;4.94;;;;;;;-1.10;88.88;100098.06;2325822;68;20294;-74
2021/11/10 06:58:53;;;;;;;11.86;5.49;;;;;;;-1.10;88.93;100113.38;2326073;68;20164;-76
2021/11/10 07:01:56;;;;;;;7.89;5.06;;;;;;;-1.18;88.93;100109.53;2319961;66;165677;-76
2021/11/10 07:05:00;;;;;;;10.50;5.17;;;;;;;-1.16;89.06;100118.16;2326397;68;20271;-75
2021/11/10 07:08:03;;;;;;;8.22;4.82;;;;;;;-1.14;89.32;100125.06;2324597;68;20199;-75
2021/11/10 07:11:05;;;;;;;8.61;4.99;;;;;;;-1.11;89.44;100130.31;2325533;68;20158;-76
2021/11/10 07:14:09;;;;;;;8.39;4.76;;;;;;;-1.08;89.57;100122.84;2325949;68;20239;-76
2021/11/10 07:17:12;;;;;;;13.03;6.06;;;;;;;-1.05;89.60;100129.81;2325690;66;27219;-76
2021/11/10 07:20:14;;;;;;;8.88;5.29;;;;;;;-0.99;89.69;100148.81;2330983;68;20166;-76
2021/11/10 07:23:17;;;;;;;12.56;5.58;;;;;;;-0.95;89.73;100148.19;2326562;68;20200;-76
2021/11/10 07:26:20;;;;;;;7.98;5.37;;;;;;;-0.86;89.66;100152.03;2330755;68;20159;-76
2021/11/10 07:29:23;;;;;;;13.79;5.66;;;;;;;-0.80;89.61;100147.25;2312460;68;20139;-76
2021/11/10 07:32:25;;;;;;;9.17;5.33;;;;;;;-0.73;89.64;100150.19;2328423;68;20158;-76
2021/11/10 07:35:29;;;;;;;9.83;5.42;;;;;;;-0.67;89.64;100155.63;2324697;68;20159;-76
2021/11/10 07:38:32;;;;;;;7.96;5.27;;;;;;;-0.58;89.63;100154.34;2323523;68;20628;-76
2021/11/10 07:41:36;;;;;;;12.62;5.33;;;;;;;-0.49;89.66;100149.72;2325388;68;20781;-76
2021/11/10 07:44:40;;;;;;;9.42;5.29;;;;;;;-0.41;89.60;100145.88;2313479;68;20151;-76
2021/11/10 07:47:43;;;;;;;10.99;5.41;;;;;;;-0.34;89.56;100156.50;2310040;66;20227;-76
2021/11/10 07:50:46;;;;;;;11.90;5.92;;;;;;;-0.27;89.61;100147.47;2308887;68;20241;-75
2021/11/10 07:53:49;;;;;;;9.14;5.28;;;;;;;-0.26;89.29;100159.44;2323964;68;20171;-76
2021/11/10 07:56:52;;;;;;;9.99;5.35;;;;;;;-0.25;89.65;100166.28;2324300;68;20318;-76
2021/11/10 07:59:55;;;;;;;8.81;5.24;;;;;;;-0.17;89.78;100169.25;2325035;68;20287;-76
2021/11/10 08:02:57;;;;;;;8.60;5.68;;;;;;;-0.12;89.75;100185.66;2322562;66;20244;-75
2021/11/10 08:06:01;;;;;;;9.92;5.39;;;;;;;-0.09;89.90;100185.81;2325357;68;20174;-76
2021/11/10 08:09:04;;;;;;;12.41;5.89;;;;;;;-0.03;89.90;100194.63;2323637;68;20168;-76
2021/11/10 08:12:07;;;;;;;10.66;6.24;;;;;;;0.03;89.72;100193.22;2325099;68;20305;-76
2021/11/10 08:15:12;;;;;;;19.09;7.96;;;;;;;0.06;89.83;100195.91;2322039;68;20295;-76
2021/11/10 08:18:14;;;;;;;12.51;6.09;;;;;;;0.12;90.01;100201.31;2324919;66;22701;-77
2021/11/10 08:21:18;;;;;;;16.93;6.81;;;;;;;0.20;89.95;100197.47;2324837;68;20538;-77
2021/11/10 08:24:21;;;;;;;13.02;7.04;;;;;;;0.30;89.98;100198.00;2325759;68;20167;-77
2021/11/10 08:27:24;;;;;;;14.64;7.71;;;;;;;0.40;89.87;100207.00;2324357;68;20374;-76
2021/11/10 08:30:27;;;;;;;16.80;7.75;;;;;;;0.49;89.79;100189.56;2317852;66;22956;-77
2021/11/10 08:33:31;;;;;;;14.89;7.66;;;;;;;0.59;89.68;100173.00;2326256;68;20287;-76
2021/11/10 08:36:34;;;;;;;16.70;7.19;;;;;;;0.69;89.48;100170.06;2326753;68;20159;-76
2021/11/10 08:39:36;;;;;;;20.14;8.54;;;;;;;0.79;89.24;100168.81;2324886;68;20295;-76
2021/11/10 08:42:40;;;;;;;17.39;8.39;;;;;;;0.88;89.03;100159.88;2324863;68;20351;-76
2021/11/10 08:45:45;;;;;;;15.11;7.53;;;;;;;0.97;88.86;100162.00;2322027;66;22107;-76
2021/11/10 08:48:48;;;;;;;19.51;7.49;;;;;;;1.06;88.68;100170.09;2322642;68;20335;-76
2021/11/10 08:51:52;;;;;;;15.55;7.19;;;;;;;1.14;88.46;100158.53;2322929;68;20313;-76
2021/11/10 08:54:55;;;;;;;19.10;6.85;;;;;;;1.19;88.27;100161.28;2322123;68;20395;-76
2021/11/10 08:57:58;;;;;;;15.91;7.64;;;;;;;1.25;88.14;100160.69;2322132;68;20275;-77
2021/11/10 09:01:01;;;;;;;16.05;7.43;;;;;;;1.26;87.98;100165.00;2320804;67;42094;-76
2021/11/10 09:04:05;;;;;;;12.84;7.32;;;;;;;1.32;87.91;100180.63;2322013;68;20303;-76
2021/11/10 09:07:08;;;;;;;13.59;7.59;;;;;;;1.41;88.10;100183.59;2321614;68;20287;-77
2021/11/10 09:10:14;;;;;;;20.09;7.86;;;;;;;1.52;88.09;100175.59;2322614;68;20332;-77
2021/11/10 09:13:16;;;;;;;16.48;8.43;;;;;;;1.63;87.84;100182.88;2321192;68;20282;-76
2021/11/10 09:16:19;;;;;;;15.61;8.14;;;;;;;1.69;87.64;100191.69;2319402;66;22285;-77
2021/11/10 09:19:21;;;;;;;17.54;7.09;;;;;;;1.80;87.81;100179.38;2322660;68;20841;-76
2021/11/10 09:22:24;;;;;;;17.49;8.00;;;;;;;1.94;87.72;100178.25;2322260;68;20294;-77
2021/11/10 09:25:28;;;;;;;18.05;8.04;;;;;;;2.13;87.71;100188.44;2324424;68;20287;-76
2021/11/10 09:28:32;;;;;;;15.23;8.32;;;;;;;2.45;87.94;100196.59;2323782;68;20310;-76
2021/11/10 09:31:40;;;;;;;15.23;7.65;;;;;;;2.81;87.75;100196.31;2323059;66;22640;-76
2021/11/10 09:34:43;;;;;;;14.89;7.46;;;;;;;3.08;86.86;100189.72;2324886;68;20424;-77
2021/11/10 09:37:45;;;;;;;15.63;8.40;;;;;;;3.29;86.18;100198.22;2325591;68;20325;-77
2021/11/10 09:40:48;;;;;;;14.91;7.65;;;;;;;3.52;85.73;100196.50;2323528;68;20742;-77
2021/11/10 09:43:52;;;;;;;16.50;8.80;;;;;;;3.68;85.22;100195.38;2323285;68;20299;-77
2021/11/10 09:47:03;;;;;;;15.20;8.50;;;;;;;3.86;84.76;100210.56;2320671;66;24835;-77
2021/11/10 09:50:08;;;;;;;15.56;8.46;;;;;;;4.04;84.43;100197.47;2323142;68;20306;-77
2021/11/10 09:53:12;;;;;;;19.34;8.82;;;;;;;4.15;83.68;100189.31;2318086;68;20359;-77
2021/11/10 09:56:14;;;;;;;20.50;9.41;;;;;;;4.25;83.59;100191.38;2323447;68;20329;-77
2021/11/10 09:59:18;;;;;;;16.35;9.44;;;;;;;4.34;83.13;100193.38;2322403;68;20360;-77
2021/11/10 10:02:21;;;;;;;14.40;8.43;;;;;;;4.36;82.90;100194.31;2318944;66;21900;-77
2021/11/10 10:05:26;;;;;;;14.50;8.50;;;;;;;4.38;82.83;100197.81;2322451;68;20320;-77
2021/11/10 10:08:30;;;;;;;14.75;7.90;;;;;;;4.44;82.94;100194.56;2323595;68;20275;-77
2021/11/10 10:11:34;;;;;;;14.74;8.40;;;;;;;4.47;82.96;100186.94;2323157;68;20862;-77
2021/11/10 10:14:37;;;;;;;21.81;9.51;;;;;;;4.50;82.89;100181.91;2321697;68;20286;-77
2021/11/10 10:17:43;;;;;;;16.34;9.55;;;;;;;4.58;83.00;100175.31;2315227;66;22567;-77
2021/11/10 10:20:51;;;;;;;16.96;10.44;;;;;;;4.66;83.03;100186.69;2322633;68;20324;-78
2021/11/10 10:23:54;;;;;;;16.91;10.10;;;;;;;4.75;83.01;100183.56;2324484;68;20352;-77
2021/11/10 10:26:56;;;;;;;16.88;9.84;;;;;;;4.82;82.98;100176.06;2323091;68;20779;-78
2021/11/10 10:30:38;;;;;;;16.10;9.43;;;;;;;5.00;82.91;100169.75;2324515;68;20267;-77
2021/11/10 10:33:46;;;;;;;18.69;9.23;;;;;;;5.15;82.46;100154.75;2325836;68;20344;-77
2021/11/10 10:36:49;;;;;;;17.03;9.94;;;;;;;5.27;81.70;100164.56;2326673;68;20328;-78
2021/11/10 10:40:14;;;;;;;15.40;9.73;;;;;;;5.35;81.27;100171.66;2325309;68;21079;-78
2021/11/10 10:43:18;;;;;;;16.40;8.76;;;;;;;5.41;81.00;100163.25;2323584;68;20862;-77
2021/11/10 10:46:30;;;;;;;14.02;8.39;;;;;;;5.53;80.96;100166.16;2316506;66;20818;-78
2021/11/10 10:49:38;;;;;;;17.14;8.81;;;;;;;5.65;81.42;100148.47;2323013;68;20299;-78
2021/11/10 10:52:53;;;;;;;15.37;9.22;;;;;;;5.74;81.56;100159.06;2323452;68;20303;-77
2021/11/10 10:55:56;;;;;;;14.32;8.82;;;;;;;5.86;81.12;100167.91;2323704;68;20180;-77
2021/11/10 10:59:04;;;;;;;10.82;7.82;;;;;;;5.94;80.63;100164.78;2323863;68;20334;-78
2021/11/10 11:02:09;;;;;;;11.54;8.41;;;;;;;6.00;79.98;100164.91;2318717;66;26022;-79
2021/11/10 11:05:36;;;;;;;12.01;7.71;;;;;;;6.06;79.72;100172.81;2323841;68;20184;-78
2021/11/10 11:08:39;;;;;;;14.73;8.91;;;;;;;6.21;80.28;100164.59;2324538;68;20682;-78
2021/11/10 11:12:12;;;;;;;13.91;8.10;;;;;;;6.33;80.44;100166.63;2325754;68;20324;-79
2021/11/10 11:15:36;;;;;;;12.43;8.19;;;;;;;6.40;79.54;100153.03;2323919;68;21286;-78
2021/11/10 11:18:39;;;;;;;14.24;8.66;;;;;;;6.47;79.17;100154.06;2322204;68;20486;-79
2021/11/10 11:21:53;;;;;;;12.40;8.21;;;;;;;6.52;79.03;100149.88;2327546;68;20283;-78
2021/11/10 11:25:06;;;;;;;13.45;7.97;;;;;;;6.56;79.25;100149.13;2326351;68;20358;-78
2021/11/10 11:28:13;;;;;;;9.68;7.11;;;;;;;6.62;79.21;100144.97;2325217;68;20383;-78
2021/11/10 11:31:28;;;;;;;11.69;7.64;;;;;;;6.74;79.34;100128.03;2320852;66;28855;-79
2021/11/10 11:34:49;;;;;;;14.85;7.71;;;;;;;6.73;78.54;100119.41;2327471;68;20326;-79
2021/11/10 11:37:53;;;;;;;12.82;8.01;;;;;;;6.79;78.60;100121.25;2327832;68;20707;-78
2021/11/10 11:40:58;;;;;;;14.99;8.00;;;;;;;6.83;78.12;100113.63;2327602;68;20296;-79
2021/11/10 11:44:00;;;;;;;13.44;8.02;;;;;;;6.88;77.47;100106.84;2327889;68;20298;-78
2021/11/10 11:47:06;;;;;;;11.25;7.59;;;;;;;6.94;77.55;100109.56;2324874;67;25276;-78
2021/11/10 11:50:09;;;;;;;12.05;8.26;;;;;;;7.01;77.37;100109.72;2318042;68;21264;-78
2021/11/10 11:53:13;;;;;;;13.80;8.26;;;;;;;7.13;77.56;100109.94;2324190;68;20295;-78
2021/11/10 11:56:19;;;;;;;11.29;8.56;;;;;;;7.22;77.36;100098.13;2324901;68;20363;-77
2021/11/10 11:59:22;;;;;;;10.10;7.30;;;;;;;7.27;77.15;100090.44;2325970;68;20291;-77
2021/11/10 12:02:35;;;;;;;13.90;7.88;;;;;;;7.33;76.93;100094.84;2324442;66;30157;-78
2021/11/10 12:05:38;;;;;;;14.49;8.04;;;;;;;7.38;76.43;100095.84;2324617;68;20856;-77
2021/11/10 12:08:43;;;;;;;11.66;7.89;;;;;;;7.40;76.65;100101.91;2326601;68;20287;-78
2021/11/10 12:11:53;;;;;;;13.07;8.70;;;;;;;7.41;76.45;100101.94;2324035;68;20363;-78
2021/11/10 12:14:58;;;;;;;11.96;7.75;;;;;;;7.44;75.63;100098.53;2324705;68;20379;-78
2021/11/10 12:18:10;;;;;;;12.27;7.96;;;;;;;7.50;75.43;100096.06;2321777;66;21149;-78
2021/11/10 12:21:18;;;;;;;14.57;9.77;;;;;;;7.56;75.43;100094.47;2329466;68;20386;-77
2021/11/10 12:24:22;;;;;;;13.40;7.96;;;;;;;7.64;75.45;100099.78;2325156;68;20304;-78
2021/11/10 12:27:40;;;;;;;10.50;7.54;;;;;;;7.68;74.96;100103.28;2324887;68;20310;-78
2021/11/10 12:30:44;;;;;;;14.33;8.12;;;;;;;7.75;75.48;100098.28;2322197;66;25808;-78
2021/11/10 12:33:47;;;;;;;12.46;7.22;;;;;;;7.76;74.39;100094.84;2315907;68;20219;-78
2021/11/10 12:36:50;;;;;;;14.49;7.04;;;;;;;7.88;74.08;100095.03;2325917;68;20342;-78
2021/11/10 12:40:15;;;;;;;10.48;6.86;;;;;;;7.99;73.84;100084.91;2326131;68;20316;-78
2021/11/10 12:43:21;;;;;;;12.64;6.96;;;;;;;8.03;73.02;100083.22;2320015;68;20469;-78
2021/11/10 12:46:23;;;;;;;11.59;7.84;;;;;;;8.07;73.11;100082.44;2318039;66;23014;-77
2021/11/10 12:49:27;;;;;;;14.26;7.43;;;;;;;8.13;72.67;100078.25;2322846;68;20309;-78
2021/11/10 12:52:44;;;;;;;12.52;7.14;;;;;;;8.16;72.34;100065.34;2305976;68;20339;-78
2021/11/10 12:55:51;;;;;;;13.96;7.53;;;;;;;8.26;72.25;100066.38;2325035;68;20397;-78
2021/11/10 12:59:01;;;;;;;12.48;6.85;;;;;;;8.35;72.64;100066.56;2319466;68;20723;-78
2021/11/10 13:02:16;;;;;;;10.46;6.95;;;;;;;8.34;72.97;100057.06;2321720;66;26319;-78
2021/11/10 13:05:29;;;;;;;11.02;6.55;;;;;;;8.33;72.33;100060.44;2323633;68;20490;-77
2021/11/10 13:09:02;;;;;;;10.61;6.49;;;;;;;8.25;71.78;100059.44;2324005;68;20299;-78
2021/11/10 13:12:06;;;;;;;12.07;6.10;;;;;;;8.20;71.81;100058.50;2310313;68;20338;-78
2021/11/10 13:15:10;;;;;;;8.61;6.07;;;;;;;8.13;71.70;100060.16;2324258;68;20290;-78
2021/11/10 13:18:18;;;;;;;11.59;6.84;;;;;;;8.14;72.46;100050.66;2322410;66;27549;-77
2021/11/10 13:21:22;;;;;;;11.11;6.13;;;;;;;8.15;72.52;100048.09;2324517;68;20359;-77
2021/11/10 13:24:28;;;;;;;8.80;6.16;;;;;;;8.17;72.33;100045.53;2322371;68;20271;-78
2021/11/10 13:27:33;;;;;;;9.82;5.97;;;;;;;8.21;73.34;100046.44;2323566;68;20375;-78
2021/11/10 13:30:47;;;;;;;13.85;6.63;;;;;;;8.25;73.36;100043.06;2322264;66;27870;-77
2021/11/10 13:33:52;;;;;;;12.88;7.81;;;;;;;8.28;72.38;100038.81;2322521;68;20307;-78
2021/11/10 13:37:07;;;;;;;10.42;6.21;;;;;;;8.34;72.48;100035.47;2310363;68;20298;-78
2021/11/10 13:40:21;;;;;;;9.71;6.40;;;;;;;8.38;73.03;100027.78;2316277;68;20781;-78
2021/11/10 13:43:26;;;;;;;11.32;6.85;;;;;;;8.49;72.82;100027.94;2315226;69;20845;-78
2021/11/10 13:46:33;;;;;;;10.60;6.11;;;;;;;8.53;72.35;100021.09;2305565;69;20416;-78
2021/11/10 13:49:42;;;;;;;10.89;6.28;;;;;;;8.51;71.58;100020.19;2316808;69;21124;-78
2021/11/10 13:53:22;;;;;;;11.38;6.72;;;;;;;8.52;71.46;100027.13;2308108;69;20308;-77
2021/11/10 13:57:02;;;;;;;12.44;6.63;;;;;;;8.56;72.12;100040.13;2303623;69;20284;-77
2021/11/10 14:00:26;;;;;;;10.15;6.63;;;;;;;8.56;71.75;100036.66;2312188;68;20295;-79
2021/11/10 14:03:42;;;;;;;9.66;6.19;;;;;;;8.48;71.72;100039.16;2316385;68;20367;-78
2021/11/10 14:07:32;;;;;;;12.29;6.71;;;;;;;8.40;71.47;100040.72;2304703;69;20381;-77
2021/11/10 14:10:36;;;;;;;10.51;6.09;;;;;;;8.34;71.38;100040.66;2308948;68;20704;-78
2021/11/10 14:13:44;;;;;;;11.64;6.22;;;;;;;8.35;71.79;100044.97;2319620;69;20276;-78
2021/11/10 14:16:51;;;;;;;11.91;6.53;;;;;;;8.34;72.62;100038.06;2315383;66;22741;-78
2021/11/10 14:20:03;;;;;;;7.76;5.65;;;;;;;8.34;72.19;100041.53;2313512;69;20299;-78
2021/11/10 14:23:35;;;;;;;8.95;5.94;;;;;;;8.33;72.72;100033.72;2298367;69;20187;-78
2021/11/10 14:26:40;;;;;;;13.56;6.46;;;;;;;8.35;72.47;100034.63;2317584;69;20307;-77
2021/11/10 14:30:12;;;;;;;9.77;6.11;;;;;;;8.38;72.74;100034.66;2320246;68;20368;-78